This is the latest recevied weather packets stored in our database for station/object DB0MAK-13. If no packets are shown the sender has not sent any weather packets the latest 10 day(s).
| Time | Temp. | Humidity | Pressure | Rain* | Wind** | Luminosity | Snow |
|---|---|---|---|---|---|---|---|
| 1778338445 | 16.67° C | 57% | 1016.1 hPa | 0 mm | - | - | - |
| 1778338028 | 16.67° C | 58% | 1016.1 hPa | 0 mm | - | - | - |
| 1778337845 | 16.67° C | 59% | 1016.1 hPa | 0 mm | - | - | - |
| 1778337611 | 16.67° C | 57% | 1016.1 hPa | 0 mm | - | - | - |
| 1778337245 | 17.22° C | 55% | 1016.1 hPa | 0 mm | - | - | - |
| 1778337190 | 17.22° C | 56% | 1016.1 hPa | 0 mm | - | - | - |
| 1778336645 | 17.22° C | 57% | 1016.2 hPa | 0 mm | - | - | - |
| 1778336350 | 17.22° C | 59% | 1016.2 hPa | 0 mm | - | - | - |
| 1778336045 | 17.78° C | 55% | 1016.2 hPa | 0 mm | - | - | - |
| 1778335930 | 17.78° C | 52% | 1016.2 hPa | 0 mm | - | - | - |
| 1778335445 | 17.22° C | 53% | 1016.5 hPa | 0 mm | - | - | - |
| 1778335088 | 17.22° C | 51% | 1016.6 hPa | 0 mm | - | - | - |
| 1778334845 | 17.22° C | 59% | 1016.7 hPa | 0 mm | - | - | - |
| 1778334245 | 16.11° C | 61% | 1016.7 hPa | 0 mm | - | - | - |
| 1778333645 | 16.67° C | 60% | 1016.9 hPa | 0 mm | - | - | - |
| 1778333410 | 16.67° C | 62% | 1016.9 hPa | 0 mm | - | - | - |
| 1778333045 | 16.11° C | 64% | 1016.9 hPa | 0 mm | - | - | - |
| 1778332988 | 16.11° C | 65% | 1016.9 hPa | 0 mm | - | - | - |
| 1778332568 | 16.11° C | 65% | 1016.1 hPa | 0 mm | - | - | - |
| 1778332445 | 16.11° C | 64% | 1016 hPa | 0 mm | - | - | - |
| 1778332148 | 16.11° C | 63% | 1016.1 hPa | 0 mm | - | - | - |
| 1778331845 | 16.67° C | 61% | 1016.2 hPa | 0 mm | - | - | - |
| 1778331728 | 16.67° C | 61% | 1016.2 hPa | 0 mm | - | - | - |
| 1778331245 | 16.67° C | 63% | 1016.2 hPa | 0 mm | - | - | - |
| 1778330645 | 15.56° C | 68% | 1016.5 hPa | 0 mm | - | - | - |
* Rain latest hour (hover to see other rain measurements)
** Current wind speed in m/s (hover to see current wind gust speed)